createdAt,value
2022-10-17T00:02:15.182Z,15.60
2022-10-17T00:04:41.959Z,15.50
2022-10-17T00:09:35.651Z,15.50
2022-10-17T00:12:02.747Z,15.50
2022-10-17T00:16:56.444Z,15.40
2022-10-17T00:19:23.111Z,15.40
2022-10-17T00:21:50.200Z,15.40
2022-10-17T00:26:44.023Z,15.40
2022-10-17T00:29:10.806Z,15.30
2022-10-17T00:31:37.708Z,15.30
2022-10-17T00:34:04.377Z,15.30
2022-10-17T00:36:31.114Z,15.30
2022-10-17T00:38:59.682Z,15.30
2022-10-17T00:41:32.179Z,15.20
2022-10-17T00:44:06.300Z,15.30
2022-10-17T00:46:36.110Z,15.30
2022-10-17T00:49:10.047Z,15.30
2022-10-17T00:51:47.365Z,15.30
2022-10-17T00:54:16.254Z,15.30
2022-10-17T00:56:44.212Z,15.20
2022-10-17T00:59:13.546Z,15.20
2022-10-17T01:01:42.985Z,15.20
2022-10-17T01:04:10.253Z,15.10
2022-10-17T01:06:36.975Z,15.10
2022-10-17T01:09:04.092Z,15.10
2022-10-17T01:14:05.975Z,15.00
2022-10-17T01:16:45.127Z,14.90
2022-10-17T01:19:26.641Z,14.90
2022-10-17T01:22:00.903Z,14.90
2022-10-17T01:24:41.664Z,14.90
2022-10-17T01:27:39.134Z,14.90
2022-10-17T01:30:30.939Z,14.90
2022-10-17T01:33:07.904Z,14.80
2022-10-17T01:36:03.190Z,14.80
2022-10-17T01:38:49.338Z,14.80
2022-10-17T01:41:46.646Z,14.80
2022-10-17T01:44:33.059Z,14.80
2022-10-17T01:47:05.394Z,17.00
2022-10-17T01:49:34.465Z,14.80
2022-10-17T01:52:15.038Z,14.80
2022-10-17T01:54:53.299Z,14.80
2022-10-17T01:57:33.323Z,14.80
2022-10-17T02:00:03.951Z,14.80
2022-10-17T02:02:32.427Z,14.80
2022-10-17T02:07:33.385Z,14.80
2022-10-17T02:10:00.031Z,14.80
2022-10-17T02:15:25.902Z,14.80
2022-10-17T02:18:01.479Z,14.70
2022-10-17T02:20:33.963Z,14.70
2022-10-17T02:23:12.253Z,14.70
2022-10-17T02:25:57.944Z,14.70
2022-10-17T02:28:35.442Z,14.70
2022-10-17T02:31:20.871Z,14.80
2022-10-17T02:34:01.791Z,14.80
2022-10-17T02:36:38.827Z,14.90
2022-10-17T02:39:08.832Z,14.90
2022-10-17T02:41:38.481Z,14.90
2022-10-17T02:44:06.361Z,14.80
2022-10-17T02:46:34.241Z,14.90
2022-10-17T02:49:05.732Z,14.90
2022-10-17T02:51:56.065Z,14.80
2022-10-17T02:54:32.711Z,14.80
2022-10-17T02:57:16.487Z,14.90
2022-10-17T02:59:45.576Z,14.90
2022-10-17T03:02:12.594Z,15.00
2022-10-17T03:04:43.428Z,14.90
2022-10-17T03:07:10.070Z,15.00
2022-10-17T03:09:36.738Z,14.90
2022-10-17T03:12:03.606Z,15.00
2022-10-17T03:14:30.320Z,14.90
2022-10-17T03:16:56.929Z,15.00
2022-10-17T03:19:23.641Z,14.90
2022-10-17T03:21:50.288Z,14.90
2022-10-17T03:24:16.925Z,14.90
2022-10-17T03:26:43.644Z,15.00
2022-10-17T03:29:10.452Z,15.00
2022-10-17T03:31:37.158Z,15.00
2022-10-17T03:34:04.021Z,15.10
2022-10-17T03:36:30.715Z,15.00
2022-10-17T03:38:57.380Z,15.00
2022-10-17T03:41:24.103Z,15.00
2022-10-17T03:43:53.426Z,15.00
2022-10-17T03:46:20.142Z,15.00
2022-10-17T03:48:46.759Z,15.10
2022-10-17T03:51:13.654Z,15.10
2022-10-17T03:53:40.311Z,15.10
2022-10-17T03:56:14.848Z,15.10
2022-10-17T03:58:41.845Z,15.00
2022-10-17T04:01:10.664Z,15.10
2022-10-17T04:03:37.675Z,15.10
2022-10-17T04:06:05.645Z,15.10
2022-10-17T04:08:32.990Z,15.10
2022-10-17T04:11:01.015Z,15.10
2022-10-17T04:13:28.944Z,15.10
2022-10-17T04:16:04.727Z,15.10
2022-10-17T04:18:32.056Z,16.10
2022-10-17T04:21:00.973Z,15.20
2022-10-17T04:23:27.704Z,15.20
2022-10-17T04:25:58.545Z,15.20
2022-10-17T04:28:26.382Z,15.20
2022-10-17T04:31:01.957Z,15.30
2022-10-17T04:33:28.806Z,15.30
2022-10-17T04:35:59.394Z,15.30
2022-10-17T04:38:28.541Z,15.30
2022-10-17T04:40:58.356Z,15.20
2022-10-17T04:43:27.672Z,15.20
2022-10-17T04:45:54.364Z,15.20
2022-10-17T04:48:24.159Z,15.20
2022-10-17T04:50:58.916Z,15.20
2022-10-17T04:53:26.849Z,15.20
2022-10-17T04:55:54.065Z,15.10
2022-10-17T04:58:21.651Z,15.10
2022-10-17T05:00:48.454Z,15.20
2022-10-17T05:03:15.298Z,15.20
2022-10-17T05:05:42.894Z,15.20
2022-10-17T05:08:11.363Z,15.30
2022-10-17T05:10:43.884Z,15.30
2022-10-17T05:13:11.337Z,15.30
2022-10-17T05:15:38.515Z,15.30
2022-10-17T05:18:06.303Z,15.30
2022-10-17T05:20:33.460Z,15.30
2022-10-17T05:23:00.697Z,15.30
2022-10-17T05:25:27.401Z,15.30
2022-10-17T05:27:54.385Z,15.30
2022-10-17T05:30:24.190Z,15.30
2022-10-17T05:32:55.020Z,15.30
2022-10-17T05:35:21.881Z,15.30
2022-10-17T05:37:48.613Z,15.30
2022-10-17T05:40:15.444Z,15.30
2022-10-17T05:42:47.699Z,15.30
2022-10-17T05:45:15.411Z,15.40
2022-10-17T05:47:42.198Z,15.40
2022-10-17T05:50:09.577Z,15.40
2022-10-17T05:52:36.420Z,15.40
2022-10-17T05:55:04.903Z,15.40
2022-10-17T05:57:31.565Z,15.40
2022-10-17T05:59:58.277Z,15.50
2022-10-17T06:02:25.005Z,15.50
2022-10-17T06:04:51.768Z,15.50
2022-10-17T06:07:21.329Z,15.50
2022-10-17T06:09:47.991Z,15.50
2022-10-17T06:12:14.646Z,15.50
2022-10-17T06:14:41.351Z,15.50
2022-10-17T06:17:12.121Z,15.50
2022-10-17T06:19:41.998Z,15.60
2022-10-17T06:22:08.700Z,15.60
2022-10-17T06:24:35.442Z,15.60
2022-10-17T06:27:02.138Z,15.70
2022-10-17T06:29:28.779Z,15.70
2022-10-17T06:31:55.482Z,15.70
2022-10-17T06:34:22.723Z,15.80
2022-10-17T06:36:49.514Z,15.80
2022-10-17T06:39:16.253Z,15.90
2022-10-17T06:41:44.450Z,15.90
2022-10-17T06:44:11.557Z,16.00
2022-10-17T06:46:39.203Z,16.10
2022-10-17T06:49:09.168Z,16.10
2022-10-17T06:51:36.879Z,16.10
2022-10-17T06:54:04.546Z,16.20
2022-10-17T06:56:31.248Z,16.20
2022-10-17T06:58:57.968Z,16.20
2022-10-17T07:01:24.644Z,16.30
2022-10-17T07:03:52.281Z,16.40
2022-10-17T07:06:19.172Z,16.40
2022-10-17T07:08:46.170Z,16.50
2022-10-17T07:11:15.242Z,16.60
2022-10-17T07:13:42.258Z,16.60
2022-10-17T07:16:09.399Z,16.80
2022-10-17T07:18:36.760Z,16.90
2022-10-17T07:21:03.978Z,17.00
2022-10-17T07:23:30.973Z,17.10
2022-10-17T07:26:02.292Z,17.20
2022-10-17T07:28:29.390Z,17.40
2022-10-17T07:30:56.187Z,17.50
2022-10-17T07:33:22.832Z,17.60
2022-10-17T07:35:49.649Z,17.60
2022-10-17T07:38:16.315Z,17.70
2022-10-17T07:40:46.082Z,17.70
2022-10-17T07:43:12.741Z,17.80
2022-10-17T07:45:41.161Z,17.70
2022-10-17T07:48:07.808Z,17.70
2022-10-17T07:50:34.454Z,17.70
2022-10-17T07:53:01.450Z,17.70
2022-10-17T07:55:28.165Z,17.80
2022-10-17T07:57:54.842Z,17.80
2022-10-17T08:00:30.334Z,17.90
2022-10-17T08:02:57.055Z,17.90
2022-10-17T08:05:25.999Z,17.90
2022-10-17T08:07:52.663Z,18.00
2022-10-17T08:10:19.546Z,18.00
2022-10-17T08:12:46.220Z,18.10
2022-10-17T08:15:13.035Z,18.10
2022-10-17T08:17:39.745Z,18.20
2022-10-17T08:20:07.068Z,18.20
2022-10-17T08:22:33.708Z,18.30
2022-10-17T08:25:00.369Z,18.40
2022-10-17T08:27:28.841Z,18.40
2022-10-17T08:29:55.570Z,18.40
2022-10-17T08:32:26.261Z,18.40
2022-10-17T08:34:53.756Z,18.40
2022-10-17T08:37:20.554Z,18.40
2022-10-17T08:39:47.914Z,18.40
2022-10-17T08:42:33.189Z,18.50
2022-10-17T08:45:25.905Z,18.70
2022-10-17T08:48:14.674Z,18.80
2022-10-17T08:51:09.914Z,19.00
2022-10-17T08:53:39.399Z,19.20
2022-10-17T08:56:47.596Z,19.40
2022-10-17T08:59:21.581Z,19.50
2022-10-17T09:01:48.177Z,19.70
2022-10-17T09:05:01.931Z,19.80
2022-10-17T09:07:38.350Z,20.00
2022-10-17T09:10:33.784Z,19.90
2022-10-17T09:13:19.278Z,20.10
2022-10-17T09:16:05.215Z,20.20
2022-10-17T09:18:36.594Z,20.20
2022-10-17T09:21:33.658Z,20.20
2022-10-17T09:24:09.565Z,20.20
2022-10-17T09:26:44.291Z,20.20
2022-10-17T09:29:19.101Z,20.20
2022-10-17T09:32:02.349Z,20.30
2022-10-17T09:34:32.128Z,20.30
2022-10-17T09:37:02.930Z,20.30
2022-10-17T09:39:33.041Z,20.30
2022-10-17T09:42:01.484Z,20.30
2022-10-17T09:44:51.245Z,20.30
2022-10-17T09:47:22.044Z,20.40
2022-10-17T09:49:50.025Z,20.50
2022-10-17T09:52:24.859Z,20.60
2022-10-17T09:55:06.820Z,20.60
2022-10-17T09:57:54.074Z,20.70
2022-10-17T10:00:28.983Z,20.70
2022-10-17T10:03:13.575Z,20.70
2022-10-17T10:05:41.512Z,20.80
2022-10-17T10:08:15.990Z,21.00
2022-10-17T10:10:44.052Z,21.10
2022-10-17T10:13:13.803Z,21.20
2022-10-17T10:15:46.003Z,21.40
2022-10-17T10:18:35.752Z,21.60
2022-10-17T10:21:15.725Z,21.70
2022-10-17T10:24:08.500Z,21.90
2022-10-17T10:26:38.723Z,22.00
2022-10-17T10:29:20.324Z,22.10
2022-10-17T10:31:48.349Z,22.20
2022-10-17T10:34:28.813Z,22.10
2022-10-17T10:37:04.693Z,21.90
2022-10-17T10:39:58.190Z,21.90
2022-10-17T10:42:52.036Z,21.90
2022-10-17T10:45:47.510Z,21.90
2022-10-17T10:48:33.821Z,21.80
2022-10-17T10:51:28.716Z,21.60
2022-10-17T10:54:03.770Z,21.40
2022-10-17T10:56:35.128Z,21.30
2022-10-17T10:59:19.087Z,21.20
2022-10-17T11:01:49.174Z,21.20
2022-10-17T11:04:38.209Z,21.20
2022-10-17T11:07:13.449Z,21.30
2022-10-17T11:09:46.355Z,21.40
2022-10-17T11:12:55.092Z,21.40
2022-10-17T11:15:30.296Z,21.30
2022-10-17T11:18:03.324Z,21.30
2022-10-17T11:20:38.312Z,21.20
2022-10-17T11:23:19.701Z,21.10
2022-10-17T11:25:49.246Z,21.10
2022-10-17T11:28:21.594Z,21.00
2022-10-17T11:30:56.894Z,21.00
2022-10-17T11:33:34.213Z,21.10
2022-10-17T11:36:08.339Z,21.10
2022-10-17T11:38:43.442Z,21.10
2022-10-17T11:41:18.936Z,21.20
2022-10-17T11:44:05.934Z,21.10
2022-10-17T11:46:36.088Z,21.20
2022-10-17T11:49:13.085Z,21.30
2022-10-17T11:52:03.586Z,21.40
2022-10-17T11:54:38.226Z,21.40
2022-10-17T11:57:16.645Z,21.50
2022-10-17T12:00:00.556Z,21.40
2022-10-17T12:03:07.722Z,21.40
2022-10-17T12:05:57.301Z,21.40
2022-10-17T12:08:30.575Z,21.60
2022-10-17T12:11:03.808Z,21.60
2022-10-17T12:13:33.246Z,21.70
2022-10-17T12:16:18.578Z,21.70
2022-10-17T12:18:51.316Z,21.70
2022-10-17T12:21:18.160Z,21.70
2022-10-17T12:23:55.329Z,21.80
2022-10-17T12:26:27.842Z,21.70
2022-10-17T12:28:56.692Z,21.60
2022-10-17T12:31:29.662Z,21.60
2022-10-17T12:34:02.002Z,21.50
2022-10-17T12:36:28.943Z,21.50
2022-10-17T12:39:01.941Z,21.50
2022-10-17T12:41:41.229Z,21.40
2022-10-17T12:44:14.418Z,21.40
2022-10-17T12:47:02.619Z,21.40
2022-10-17T12:49:45.791Z,21.30
2022-10-17T12:52:21.880Z,21.20
2022-10-17T12:55:12.526Z,21.10
2022-10-17T12:57:56.995Z,21.00
2022-10-17T13:00:31.981Z,21.10
2022-10-17T13:03:05.182Z,21.20
2022-10-17T13:05:35.481Z,21.30
2022-10-17T13:08:05.867Z,21.40
2022-10-17T13:10:39.684Z,21.50
2022-10-17T13:13:14.305Z,21.50
2022-10-17T13:15:46.611Z,21.40
2022-10-17T13:18:22.586Z,21.50
2022-10-17T13:21:05.557Z,21.40
2022-10-17T13:23:37.789Z,21.50
2022-10-17T13:26:15.983Z,21.50
2022-10-17T13:28:44.045Z,21.40
2022-10-17T13:31:35.634Z,21.40
2022-10-17T13:34:05.568Z,21.40
2022-10-17T13:36:34.206Z,21.30
2022-10-17T13:39:12.089Z,21.30
2022-10-17T13:41:41.415Z,21.20
2022-10-17T13:44:14.927Z,21.20
2022-10-17T13:46:42.797Z,21.20
2022-10-17T13:49:36.243Z,21.10
2022-10-17T13:52:05.903Z,21.20
2022-10-17T13:54:35.591Z,21.20
2022-10-17T13:57:04.658Z,21.30
2022-10-17T13:59:41.991Z,21.40
2022-10-17T14:02:16.098Z,21.40
2022-10-17T14:05:15.080Z,21.30
2022-10-17T14:07:58.389Z,21.30
2022-10-17T14:10:36.743Z,21.40
2022-10-17T14:13:06.852Z,21.60
2022-10-17T14:15:35.735Z,21.70
2022-10-17T14:18:07.708Z,21.80
2022-10-17T14:23:33.539Z,21.90
2022-10-17T14:26:14.603Z,22.00
2022-10-17T14:28:44.036Z,21.90
2022-10-17T14:31:21.520Z,21.80
2022-10-17T14:33:51.137Z,21.90
2022-10-17T14:36:20.103Z,21.80
2022-10-17T14:38:50.078Z,21.80
2022-10-17T14:41:43.526Z,21.80
2022-10-17T14:44:22.318Z,21.70
2022-10-17T14:46:53.470Z,21.70
2022-10-17T14:49:34.303Z,21.50
2022-10-17T14:52:18.215Z,21.50
2022-10-17T14:54:48.634Z,21.50
2022-10-17T14:57:26.504Z,21.40
2022-10-17T14:59:55.717Z,21.30
2022-10-17T15:02:28.794Z,21.30
2022-10-17T15:04:56.012Z,21.30
2022-10-17T15:07:23.762Z,21.50
2022-10-17T15:09:52.671Z,21.40
2022-10-17T15:12:22.557Z,21.40
2022-10-17T15:14:49.441Z,21.40
2022-10-17T15:17:26.842Z,21.40
2022-10-17T15:19:54.026Z,21.30
2022-10-17T15:22:20.803Z,21.20
2022-10-17T15:24:47.891Z,21.20
2022-10-17T15:27:20.332Z,21.20
2022-10-17T15:29:47.647Z,21.10
2022-10-17T15:32:14.419Z,21.00
2022-10-17T15:34:41.775Z,20.90
2022-10-17T15:37:23.151Z,20.50
2022-10-17T15:39:59.986Z,20.80
2022-10-17T15:42:29.284Z,20.70
2022-10-17T15:44:57.394Z,20.60
2022-10-17T15:47:36.054Z,20.60
2022-10-17T15:50:03.450Z,20.50
2022-10-17T15:52:30.188Z,20.30
2022-10-17T15:54:59.540Z,20.30
2022-10-17T15:57:38.536Z,20.30
2022-10-17T16:00:11.728Z,20.30
2022-10-17T16:02:40.825Z,20.30
2022-10-17T16:05:25.588Z,20.30
2022-10-17T16:07:53.621Z,20.30
2022-10-17T16:10:21.101Z,20.30
2022-10-17T16:12:49.767Z,20.30
2022-10-17T16:15:25.100Z,20.20
2022-10-17T16:17:53.336Z,20.20
2022-10-17T16:20:21.396Z,20.20
2022-10-17T16:22:49.342Z,20.20
2022-10-17T16:25:24.229Z,20.20
2022-10-17T16:27:54.057Z,20.00
2022-10-17T16:32:54.547Z,20.10
2022-10-17T16:35:25.172Z,20.00
2022-10-17T16:37:56.377Z,20.00
2022-10-17T16:40:23.282Z,19.90
2022-10-17T16:42:49.973Z,19.80
2022-10-17T16:45:20.700Z,19.70
2022-10-17T16:47:48.100Z,19.50
2022-10-17T16:50:15.763Z,19.50
2022-10-17T16:52:42.621Z,19.40
2022-10-17T16:55:09.932Z,19.30
2022-10-17T17:00:08.167Z,19.30
2022-10-17T17:02:35.136Z,19.10
2022-10-17T17:05:01.918Z,19.10
2022-10-17T17:07:29.729Z,19.10
2022-10-17T17:09:57.059Z,19.00
2022-10-17T17:12:23.958Z,18.90
2022-10-17T17:14:51.336Z,18.90
2022-10-17T17:17:30.345Z,18.80
2022-10-17T17:20:06.337Z,18.80
2022-10-17T17:22:36.059Z,18.70
2022-10-17T17:25:02.865Z,18.60
2022-10-17T17:27:32.397Z,18.60
2022-10-17T17:29:59.682Z,18.50
2022-10-17T17:32:26.339Z,18.50
2022-10-17T17:34:53.153Z,18.50
2022-10-17T17:37:19.810Z,18.40
2022-10-17T17:39:46.554Z,18.30
2022-10-17T17:42:13.267Z,18.30
2022-10-17T17:47:09.634Z,18.30
2022-10-17T17:49:36.608Z,18.20
2022-10-17T17:54:38.496Z,18.10
2022-10-17T17:57:07.684Z,18.10
2022-10-17T18:02:02.818Z,18.00
2022-10-17T18:04:29.626Z,18.00
2022-10-17T18:06:56.306Z,18.10
2022-10-17T18:11:50.616Z,18.00
2022-10-17T18:14:19.072Z,18.00
2022-10-17T18:16:45.788Z,18.00
2022-10-17T18:19:12.831Z,17.90
2022-10-17T18:21:39.512Z,17.90
2022-10-17T18:24:06.778Z,17.90
2022-10-17T18:26:34.254Z,17.90
2022-10-17T18:29:01.156Z,17.90
2022-10-17T18:31:35.479Z,17.90
2022-10-17T18:34:03.039Z,17.90
2022-10-17T18:36:30.752Z,17.80
2022-10-17T18:38:58.940Z,17.90
2022-10-17T18:41:26.845Z,17.90
2022-10-17T18:43:55.010Z,17.80
2022-10-17T18:46:24.591Z,17.90
2022-10-17T18:48:51.327Z,17.80
2022-10-17T18:51:21.151Z,17.80
2022-10-17T18:53:50.340Z,17.90
2022-10-17T18:56:18.639Z,17.80
2022-10-17T18:58:45.829Z,17.70
2022-10-17T19:01:15.545Z,17.80
2022-10-17T19:03:43.524Z,17.80
2022-10-17T19:06:11.688Z,17.80
2022-10-17T19:08:39.143Z,17.70
2022-10-17T19:11:21.479Z,17.70
2022-10-17T19:13:49.105Z,17.60
2022-10-17T19:16:22.456Z,17.60
2022-10-17T19:18:54.123Z,17.60
2022-10-17T19:21:22.092Z,17.50
2022-10-17T19:23:59.971Z,17.60
2022-10-17T19:26:28.293Z,17.60
2022-10-17T19:28:55.934Z,17.50
2022-10-17T19:31:27.111Z,17.50
2022-10-17T19:33:55.290Z,17.50
2022-10-17T19:36:27.529Z,17.50
2022-10-17T19:39:00.832Z,17.50
2022-10-17T19:41:28.294Z,17.50
2022-10-17T19:43:55.029Z,17.50
2022-10-17T19:46:23.985Z,17.40
2022-10-17T19:48:51.602Z,17.40
2022-10-17T19:51:20.063Z,17.50
2022-10-17T19:53:47.633Z,17.40
2022-10-17T19:56:18.436Z,17.40
2022-10-17T19:58:47.018Z,17.40
2022-10-17T20:01:20.032Z,17.30
2022-10-17T20:03:47.387Z,17.30
2022-10-17T20:06:14.705Z,17.30
2022-10-17T20:08:42.148Z,17.30
2022-10-17T20:11:13.749Z,17.20
2022-10-17T20:13:40.636Z,17.20
2022-10-17T20:16:10.859Z,17.20
2022-10-17T20:18:40.923Z,17.20
2022-10-17T20:21:11.072Z,17.10
2022-10-17T20:23:38.520Z,17.10
2022-10-17T20:26:25.490Z,17.10
2022-10-17T20:28:55.951Z,17.00
2022-10-17T20:31:24.078Z,17.00
2022-10-17T20:33:58.362Z,17.00
2022-10-17T20:36:25.872Z,17.00
2022-10-17T20:39:01.274Z,16.90
2022-10-17T20:41:27.949Z,16.90
2022-10-17T20:43:55.801Z,16.90
2022-10-17T20:46:36.439Z,16.80
2022-10-17T20:49:05.316Z,16.80
2022-10-17T20:51:32.246Z,16.70
2022-10-17T20:53:59.044Z,16.70
2022-10-17T20:56:28.818Z,16.70
2022-10-17T20:59:05.401Z,16.70
2022-10-17T21:01:34.193Z,16.80
2022-10-17T21:06:48.817Z,16.60
2022-10-17T21:09:15.480Z,16.60
2022-10-17T21:11:43.134Z,16.60
2022-10-17T21:14:11.929Z,16.60
2022-10-17T21:16:40.195Z,16.60
2022-10-17T21:19:06.936Z,16.50
2022-10-17T21:21:38.603Z,16.50
2022-10-17T21:24:08.960Z,16.50
2022-10-17T21:26:37.515Z,16.40
2022-10-17T21:29:08.386Z,16.40
2022-10-17T21:31:37.216Z,16.40
2022-10-17T21:34:17.488Z,16.40
2022-10-17T21:36:45.098Z,16.40
2022-10-17T21:39:13.473Z,16.40
2022-10-17T21:41:40.593Z,16.30
2022-10-17T21:44:26.938Z,16.30
2022-10-17T21:46:57.280Z,16.30
2022-10-17T21:49:25.258Z,16.30
2022-10-17T21:51:52.594Z,16.30
2022-10-17T21:54:20.962Z,16.30
2022-10-17T21:57:36.208Z,16.20
2022-10-17T22:07:38.257Z,16.20
2022-10-17T22:10:09.383Z,16.20
2022-10-17T22:12:36.025Z,16.10
2022-10-17T22:15:03.688Z,16.20
2022-10-17T22:17:31.788Z,16.20
2022-10-17T22:19:58.587Z,16.10
2022-10-17T22:22:25.297Z,16.20
2022-10-17T22:24:52.357Z,16.20
2022-10-17T22:27:21.482Z,16.10
2022-10-17T22:29:48.138Z,16.10
2022-10-17T22:32:18.695Z,16.10
2022-10-17T22:34:48.503Z,16.10
2022-10-17T22:37:15.239Z,16.10
2022-10-17T22:39:41.952Z,16.10
2022-10-17T22:42:08.699Z,16.10
2022-10-17T22:44:35.511Z,16.10
2022-10-17T22:47:02.165Z,16.10
2022-10-17T22:49:42.016Z,16.10
2022-10-17T22:52:08.700Z,16.10
2022-10-17T22:54:35.412Z,16.10
2022-10-17T22:57:02.035Z,16.10
2022-10-17T22:59:42.969Z,16.10
2022-10-17T23:02:09.613Z,16.10
2022-10-17T23:04:36.847Z,16.10
2022-10-17T23:07:03.586Z,16.10
2022-10-17T23:09:30.242Z,16.10
2022-10-17T23:11:56.920Z,16.10
2022-10-17T23:14:23.565Z,16.10
2022-10-17T23:16:50.212Z,16.00
2022-10-17T23:19:16.918Z,16.00
2022-10-17T23:21:43.575Z,16.00
2022-10-17T23:24:10.278Z,16.00
2022-10-17T23:26:37.132Z,16.00
2022-10-17T23:29:03.833Z,16.00
2022-10-17T23:31:30.694Z,16.00
2022-10-17T23:33:58.769Z,16.00
2022-10-17T23:36:25.545Z,16.00
2022-10-17T23:38:54.999Z,15.90
2022-10-17T23:41:24.598Z,15.90
2022-10-17T23:43:51.297Z,15.90
2022-10-17T23:46:18.377Z,15.90
2022-10-17T23:48:45.168Z,16.00
2022-10-17T23:51:11.907Z,15.90
2022-10-17T23:53:39.395Z,15.90
2022-10-17T23:56:07.795Z,15.90
2022-10-17T23:58:34.944Z,15.90
